Terminal Aerodrome Forecast
Issued by NWS Cleveland, OH

Home | Current Version | Previous Version | Text Only | Print | Product List | Glossary On
Versions: 1 2 3 4 5 6 7 8 9 10 11 12 13 14 15 16 17 18 19
539
FTUS41 KCLE 290540
TAFCAK
TAF
KCAK 290540Z 2906/3006 VRB03KT 6SM BR SCT060 BKN250
      TEMPO 2907/2910 2SM BR
     FM291000 03005KT 3SM BR SCT007
      TEMPO 2910/2913 1SM BR BKN007
     FM291300 03005KT P6SM SCT015
     FM291500 01008KT P6SM SCT050=

USA.gov is the U.S. government's official web portal to all federal, state and local government web resources and services.